Time;durP1;ratioP1;P1;durP2;ratioP2;P2;SDS_P1;SDS_P2;PMS_P1;PMS_P2;Temp;Humidity;BMP_temperature;BMP_pressure;BME280_temperature;BME280_humidity;BME280_pressure;Samples;Min_cycle;Max_cycle;Signal;HPM_P1;HPM_P2
2022/01/28 00:00:59;;;;;;;7.60;1.60;;;7.20;80.00;;;;;;5061648;28;20139;-73
2022/01/28 00:03:25;;;;;;;7.47;1.77;;;7.20;80.10;;;;;;5061495;28;20025;-73
2022/01/28 00:05:51;;;;;;;6.82;1.85;;;7.20;80.00;;;;;;5063983;28;20037;-74
2022/01/28 00:08:16;;;;;;;9.95;2.10;;;7.10;79.90;;;;;;5066205;28;20028;-73
2022/01/28 00:10:42;;;;;;;9.77;2.10;;;7.10;79.90;;;;;;5064667;28;20494;-74
2022/01/28 00:39:44;;;;;;;8.50;1.70;;;7.00;79.40;;;;;;5079632;28;20060;-75
2022/01/28 00:42:10;;;;;;;8.90;2.15;;;7.00;79.30;;;;;;5076001;28;20066;-74
2022/01/28 00:44:36;;;;;;;9.45;1.88;;;7.00;79.40;;;;;;5077504;28;20028;-74
2022/01/28 00:47:02;;;;;;;7.57;2.45;;;7.00;79.20;;;;;;5080998;28;20024;-75
2022/01/28 00:49:28;;;;;;;10.32;2.17;;;7.00;79.20;;;;;;5078635;28;20083;-75
2022/01/28 00:51:53;;;;;;;7.68;1.80;;;7.00;79.30;;;;;;5077720;28;20434;-75
2022/01/28 00:54:19;;;;;;;4.53;1.40;;;7.00;79.20;;;;;;5079768;28;20047;-75
2022/01/28 00:56:45;;;;;;;7.63;1.88;;;7.00;79.10;;;;;;5073985;28;20023;-75
2022/01/28 00:59:11;;;;;;;6.68;1.90;;;7.00;79.10;;;;;;5078157;28;20024;-76
2022/01/28 01:01:37;;;;;;;8.23;1.90;;;6.90;79.00;;;;;;5079282;28;20462;-74
2022/01/28 01:04:03;;;;;;;6.82;1.80;;;7.00;79.00;;;;;;5073915;28;20024;-75
2022/01/28 01:06:29;;;;;;;7.10;1.40;;;7.00;79.10;;;;;;5078093;28;20028;-75
2022/01/28 01:08:55;;;;;;;7.45;1.65;;;7.00;79.10;;;;;;5078531;28;20028;-74
2022/01/28 01:11:22;;;;;;;10.00;2.05;;;7.00;78.90;;;;;;5074212;28;20035;-75
2022/01/28 01:13:49;;;;;;;10.65;1.80;;;7.00;78.90;;;;;;5076330;28;20022;-75
2022/01/28 01:16:20;;;;;;;9.88;2.20;;;6.90;78.80;;;;;;5076118;28;20085;-76
2022/01/28 01:21:37;;;;;;;8.02;1.73;;;6.90;78.60;;;;;;5076983;28;20051;-76
2022/01/28 01:24:02;;;;;;;6.75;1.90;;;6.90;78.70;;;;;;5074851;28;20024;-76
2022/01/28 01:26:32;;;;;;;12.75;2.17;;;6.90;78.80;;;;;;5073316;28;20379;-76
2022/01/28 01:28:57;;;;;;;7.07;2.00;;;6.90;78.70;;;;;;5078456;28;20020;-75
2022/01/28 01:31:23;;;;;;;8.77;1.83;;;6.90;78.60;;;;;;5076412;28;20031;-76
2022/01/28 01:33:56;;;;;;;6.97;1.83;;;6.90;78.70;;;;;;5078307;28;20066;-75
2022/01/28 01:36:22;;;;;;;6.53;1.55;;;6.90;78.60;;;;;;5076591;28;20031;-75
2022/01/28 01:38:48;;;;;;;9.00;1.65;;;6.90;78.60;;;;;;5077363;28;20096;-77
2022/01/28 01:41:24;;;;;;;8.38;1.77;;;6.90;78.60;;;;;;5079342;28;20165;-76
2022/01/28 01:44:02;;;;;;;7.95;2.65;;;6.90;78.60;;;;;;5079822;28;20016;-75
2022/01/28 01:54:21;;;;;;;7.50;2.20;;;6.90;78.60;;;;;;5071227;28;20514;-76
2022/01/28 01:56:48;;;;;;;10.05;2.05;;;6.90;78.60;;;;;;5059714;28;20112;-76
2022/01/28 01:59:14;;;;;;;7.65;2.30;;;6.90;78.70;;;;;;5068304;28;20074;-76
2022/01/28 02:01:39;;;;;;;9.05;1.73;;;6.90;78.70;;;;;;5068027;28;20060;-76
2022/01/28 02:04:06;;;;;;;7.15;1.50;;;6.90;78.70;;;;;;5064029;28;20033;-76
2022/01/28 02:06:31;;;;;;;7.25;1.83;;;6.90;78.80;;;;;;5056373;28;20027;-76
2022/01/28 02:08:57;;;;;;;10.15;1.70;;;6.90;78.70;;;;;;5070464;28;20016;-76
2022/01/28 02:11:23;;;;;;;5.75;1.60;;;6.90;78.60;;;;;;5070890;28;20490;-77
2022/01/28 02:13:50;;;;;;;8.63;1.98;;;6.90;78.70;;;;;;5066387;28;20025;-76
2022/01/28 02:16:16;;;;;;;6.25;1.65;;;6.90;78.70;;;;;;5071314;28;20024;-76
2022/01/28 02:18:42;;;;;;;6.78;2.10;;;6.90;78.60;;;;;;5068664;28;20109;-76
2022/01/28 02:21:11;;;;;;;8.23;1.83;;;6.80;78.60;;;;;;5062773;28;20491;-76
2022/01/28 02:23:38;;;;;;;5.13;1.40;;;6.80;78.60;;;;;;5065595;28;20033;-76
2022/01/28 02:26:05;;;;;;;7.30;1.50;;;6.80;78.60;;;;;;5065173;28;20012;-75
2022/01/28 02:28:36;;;;;;;6.93;1.90;;;6.80;78.60;;;;;;5071238;28;20024;-75
2022/01/28 02:31:03;;;;;;;5.95;1.60;;;6.90;78.60;;;;;;5066545;28;20032;-75
2022/01/28 02:33:29;;;;;;;10.02;1.90;;;6.80;78.60;;;;;;5065171;28;20024;-75
2022/01/28 02:35:56;;;;;;;5.95;1.58;;;6.80;78.50;;;;;;5064055;28;20021;-74
2022/01/28 02:38:23;;;;;;;7.30;1.60;;;6.80;78.50;;;;;;5069552;28;20537;-75
2022/01/28 02:40:55;;;;;;;7.15;1.60;;;6.80;78.50;;;;;;5069417;28;20115;-74
2022/01/28 02:45:47;;;;;;;8.43;1.77;;;6.80;78.50;;;;;;5066069;28;20029;-75
2022/01/28 02:48:24;;;;;;;11.70;1.80;;;6.80;78.50;;;;;;5067379;28;20047;-75
2022/01/28 02:53:27;;;;;;;7.72;1.75;;;6.70;78.40;;;;;;5063082;28;20033;-75
2022/01/28 02:56:02;;;;;;;7.60;1.60;;;6.80;78.50;;;;;;5069221;28;20028;-75
2022/01/28 02:58:28;;;;;;;6.55;1.70;;;6.80;78.50;;;;;;5070720;28;20066;-75
2022/01/28 03:00:56;;;;;;;7.32;1.42;;;6.80;78.50;;;;;;5064889;28;20036;-76
2022/01/28 03:03:23;;;;;;;7.15;1.60;;;6.80;78.60;;;;;;5068064;28;20040;-76
2022/01/28 03:05:52;;;;;;;6.85;1.75;;;6.80;78.60;;;;;;5062956;28;20513;-76
2022/01/28 03:08:22;;;;;;;7.25;1.65;;;6.80;78.50;;;;;;5060101;28;20024;-75
2022/01/28 03:11:18;;;;;;;7.38;1.73;;;6.80;78.50;;;;;;5062571;28;20070;-75
2022/01/28 03:16:25;;;;;;;5.32;1.38;;;6.80;78.60;;;;;;5070307;28;20036;-76
2022/01/28 03:19:16;;;;;;;5.68;1.70;;;6.80;78.60;;;;;;5066747;28;20123;-76
2022/01/28 03:21:44;;;;;;;6.07;1.48;;;6.80;78.70;;;;;;5068792;28;20064;-75
2022/01/28 03:24:12;;;;;;;5.05;1.67;;;6.80;78.70;;;;;;5063302;28;20016;-75
2022/01/28 03:26:38;;;;;;;6.82;1.65;;;6.80;78.60;;;;;;5066031;28;20039;-75
2022/01/28 03:29:04;;;;;;;4.40;1.55;;;6.80;78.60;;;;;;5068554;28;20425;-75
2022/01/28 03:31:29;;;;;;;8.10;1.60;;;6.70;78.70;;;;;;5068745;28;20024;-75
2022/01/28 03:33:55;;;;;;;7.95;1.60;;;6.80;78.70;;;;;;5069221;28;20423;-75
2022/01/28 03:36:21;;;;;;;8.57;2.00;;;6.80;78.70;;;;;;5060125;28;20043;-77
2022/01/28 03:38:48;;;;;;;9.00;2.00;;;6.70;78.80;;;;;;5068254;28;20051;-78
2022/01/28 03:41:17;;;;;;;7.47;1.50;;;6.70;78.70;;;;;;5066025;28;20127;-76
2022/01/28 03:43:46;;;;;;;8.38;1.80;;;6.70;78.70;;;;;;5066467;28;20021;-76
2022/01/28 03:46:13;;;;;;;9.52;1.73;;;6.70;79.40;;;;;;5065966;28;20875;-76
2022/01/28 03:48:39;;;;;;;7.07;1.83;;;6.70;78.80;;;;;;5066676;28;20517;-75
2022/01/28 03:51:04;;;;;;;8.63;1.90;;;6.70;78.80;;;;;;5064437;28;20020;-76
2022/01/28 03:53:30;;;;;;;7.20;1.42;;;6.70;79.00;;;;;;5059849;28;20360;-75
2022/01/28 03:55:57;;;;;;;6.75;1.80;;;6.70;78.90;;;;;;5055675;28;20025;-76
2022/01/28 03:58:24;;;;;;;6.68;1.63;;;6.80;79.00;;;;;;5062861;28;20032;-76
2022/01/28 04:00:50;;;;;;;8.43;1.60;;;6.80;78.80;;;;;;5065105;28;20033;-76
2022/01/28 04:11:38;;;;;;;7.57;1.58;;;6.80;78.80;;;;;;5066143;28;20629;-75
2022/01/28 04:14:13;;;;;;;6.15;1.50;;;6.70;78.90;;;;;;5077569;28;20085;-75
2022/01/28 04:19:23;;;;;;;5.97;1.42;;;6.70;78.90;;;;;;5073503;28;20041;-76
2022/01/28 04:21:48;;;;;;;8.20;1.60;;;6.70;79.00;;;;;;5069924;28;20048;-75
2022/01/28 04:24:14;;;;;;;5.50;1.58;;;6.70;79.00;;;;;;5065198;28;20076;-75
2022/01/28 04:26:40;;;;;;;7.78;1.58;;;6.70;79.00;;;;;;5065399;28;20017;-76
2022/01/28 04:29:07;;;;;;;4.43;1.30;;;6.70;79.00;;;;;;5073107;28;20020;-75
2022/01/28 04:31:33;;;;;;;7.05;1.55;;;6.70;79.00;;;;;;5068826;28;20021;-76
2022/01/28 04:34:01;;;;;;;5.47;1.60;;;6.70;79.10;;;;;;5071806;28;20074;-76
2022/01/28 04:36:30;;;;;;;9.25;1.73;;;6.70;79.10;;;;;;5068237;28;20021;-76
2022/01/28 04:39:04;;;;;;;6.50;1.30;;;6.70;79.10;;;;;;5062795;28;20035;-76
2022/01/28 04:41:56;;;;;;;7.10;2.15;;;6.70;79.10;;;;;;5068124;28;20082;-76
2022/01/28 04:44:31;;;;;;;8.88;1.60;;;6.70;79.00;;;;;;5063621;28;20021;-76
2022/01/28 04:47:14;;;;;;;5.93;1.50;;;6.70;79.00;;;;;;5066336;28;20020;-77
2022/01/28 04:52:45;;;;;;;7.68;1.88;;;6.60;79.10;;;;;;5062889;28;20037;-77
2022/01/28 04:55:33;;;;;;;6.90;1.50;;;6.60;79.10;;;;;;5066718;28;20061;-77
2022/01/28 05:00:51;;;;;;;5.00;1.30;;;6.60;79.20;;;;;;5070410;28;20483;-77
2022/01/28 05:03:43;;;;;;;6.60;1.50;;;6.60;79.20;;;;;;5064228;28;20056;-75
2022/01/28 05:06:49;;;;;;;6.28;1.60;;;6.60;79.30;;;;;;5059972;28;20434;-75
2022/01/28 05:28:40;;;;;;;3.90;1.20;;;6.60;79.30;;;;;;5062946;28;20035;-76
2022/01/28 05:31:06;;;;;;;4.63;1.30;;;6.50;79.30;;;;;;5069891;28;20467;-77
2022/01/28 05:33:31;;;;;;;6.57;1.38;;;6.50;79.40;;;;;;5074651;28;20123;-77
2022/01/28 05:35:57;;;;;;;8.23;1.40;;;6.50;79.40;;;;;;5066592;28;20074;-76
2022/01/28 05:38:22;;;;;;;5.15;1.27;;;6.50;79.40;;;;;;5059920;28;20465;-76
2022/01/28 05:40:48;;;;;;;7.25;1.77;;;6.60;79.40;;;;;;5061770;28;20051;-77
2022/01/28 05:43:13;;;;;;;4.85;1.60;;;6.50;79.40;;;;;;5059732;28;20098;-76
2022/01/28 05:45:40;;;;;;;8.10;1.55;;;6.60;79.40;;;;;;5063017;28;20146;-73
2022/01/28 05:48:06;;;;;;;6.68;1.70;;;6.60;79.40;;;;;;5064107;28;20036;-73
2022/01/28 05:50:31;;;;;;;5.32;1.48;;;6.50;79.30;;;;;;5070757;28;20391;-73
2022/01/28 05:52:57;;;;;;;5.90;1.30;;;6.50;79.40;;;;;;5064926;28;20028;-75
2022/01/28 05:55:22;;;;;;;6.30;1.45;;;6.50;79.40;;;;;;5070946;28;20024;-74
2022/01/28 05:57:48;;;;;;;5.57;1.33;;;6.50;79.40;;;;;;5071257;28;20020;-74
2022/01/28 06:00:14;;;;;;;4.55;1.50;;;6.50;79.40;;;;;;5064761;28;20012;-76
2022/01/28 06:02:40;;;;;;;6.05;1.50;;;6.50;79.50;;;;;;5062822;28;20037;-75
2022/01/28 06:05:06;;;;;;;5.80;1.50;;;6.50;79.40;;;;;;5059714;28;20033;-82
2022/01/28 06:07:31;;;;;;;5.60;1.40;;;6.50;79.40;;;;;;5066336;28;20037;-77
2022/01/28 06:09:57;;;;;;;8.82;1.65;;;6.40;79.40;;;;;;5067637;28;20047;-78
2022/01/28 06:12:22;;;;;;;6.22;1.27;;;6.50;79.50;;;;;;5070589;28;20374;-76
2022/01/28 06:14:48;;;;;;;7.90;1.60;;;6.50;79.50;;;;;;5083990;28;20086;-75
2022/01/28 06:17:13;;;;;;;7.32;1.30;;;6.50;79.50;;;;;;5063069;28;20028;-76
2022/01/28 06:19:39;;;;;;;4.35;1.40;;;6.50;79.50;;;;;;5066733;28;20062;-75
2022/01/28 06:22:05;;;;;;;6.00;1.40;;;6.50;79.40;;;;;;5075192;28;20625;-74
2022/01/28 06:24:30;;;;;;;6.95;1.27;;;6.50;79.50;;;;;;5077404;28;20372;-76
2022/01/28 06:26:56;;;;;;;5.90;1.40;;;6.40;79.40;;;;;;5071502;28;20520;-77
2022/01/28 06:29:21;;;;;;;4.43;1.38;;;6.50;79.30;;;;;;5067024;28;20451;-77
2022/01/28 06:31:47;;;;;;;6.90;1.55;;;6.50;79.40;;;;;;5067732;28;20051;-76
2022/01/28 06:34:13;;;;;;;6.40;1.50;;;6.50;79.40;;;;;;5069212;28;20371;-77
2022/01/28 06:36:39;;;;;;;6.03;1.20;;;6.50;79.40;;;;;;5065308;28;20113;-75
2022/01/28 06:39:04;;;;;;;7.30;1.45;;;6.50;79.40;;;;;;5071168;28;20052;-75
2022/01/28 06:41:30;;;;;;;4.57;1.27;;;6.60;79.40;;;;;;5061688;28;20431;-75
2022/01/28 06:43:57;;;;;;;6.75;1.30;;;6.60;79.40;;;;;;5050104;28;20108;-76
2022/01/28 06:46:22;;;;;;;5.75;1.27;;;6.60;79.40;;;;;;5055647;28;20495;-76
2022/01/28 06:48:48;;;;;;;3.40;1.10;;;6.70;79.40;;;;;;5060205;28;20035;-75
2022/01/28 06:51:13;;;;;;;8.95;1.50;;;6.70;79.40;;;;;;5068093;28;20024;-75
2022/01/28 06:53:39;;;;;;;8.15;1.77;;;6.70;79.40;;;;;;5064261;28;20029;-76
2022/01/28 06:56:05;;;;;;;4.65;1.40;;;6.70;79.40;;;;;;5075065;28;20624;-75
2022/01/28 06:58:31;;;;;;;4.40;1.48;;;6.70;79.40;;;;;;5072162;28;20029;-75
2022/01/28 07:00:57;;;;;;;10.55;1.60;;;6.60;79.30;;;;;;5072993;28;20039;-74
2022/01/28 07:03:22;;;;;;;6.85;1.50;;;6.70;79.40;;;;;;5068391;28;20029;-75
2022/01/28 07:05:48;;;;;;;4.03;1.40;;;6.70;79.40;;;;;;5074570;28;20034;-74
2022/01/28 07:08:13;;;;;;;4.28;1.23;;;6.70;79.30;;;;;;5079944;28;20059;-74
2022/01/28 07:10:39;;;;;;;5.63;1.38;;;6.70;79.40;;;;;;5077590;28;20023;-75
2022/01/28 07:13:05;;;;;;;7.28;1.50;;;6.70;79.40;;;;;;5078116;28;20081;-75
2022/01/28 07:15:31;;;;;;;4.95;1.50;;;6.70;79.30;;;;;;5070158;28;20032;-76
2022/01/28 07:18:02;;;;;;;6.60;1.38;;;6.70;79.40;;;;;;5067345;28;20104;-76
2022/01/28 07:20:31;;;;;;;8.10;1.67;;;6.60;79.30;;;;;;5068829;28;20104;-77
2022/01/28 07:22:57;;;;;;;5.47;1.48;;;6.70;79.40;;;;;;5072487;28;20116;-78
2022/01/28 07:25:23;;;;;;;5.13;1.80;;;6.70;79.40;;;;;;5072039;28;20530;-78
2022/01/28 07:27:48;;;;;;;6.15;1.70;;;6.60;79.30;;;;;;5066945;28;20116;-77
2022/01/28 07:30:14;;;;;;;9.80;1.75;;;6.70;79.40;;;;;;5064503;28;20020;-73
2022/01/28 07:32:40;;;;;;;7.40;1.65;;;6.60;79.40;;;;;;5073312;28;20016;-74
2022/01/28 07:35:06;;;;;;;6.95;1.88;;;6.60;79.40;;;;;;5073734;28;20033;-74
2022/01/28 07:37:32;;;;;;;5.30;1.60;;;6.60;79.40;;;;;;5071086;28;20017;-74
2022/01/28 07:39:57;;;;;;;6.50;1.58;;;6.60;79.40;;;;;;5072565;28;20103;-75
2022/01/28 07:42:25;;;;;;;7.00;1.77;;;6.60;79.40;;;;;;5070413;28;20102;-76
2022/01/28 07:44:51;;;;;;;7.05;1.85;;;6.60;79.30;;;;;;5075598;28;20091;-75
2022/01/28 07:47:16;;;;;;;4.20;1.63;;;6.70;79.40;;;;;;5080687;28;20032;-77
2022/01/28 07:49:42;;;;;;;4.50;1.50;;;6.70;79.40;;;;;;5078753;28;20016;-77
2022/01/28 07:52:07;;;;;;;5.85;1.85;;;6.60;79.30;;;;;;5077577;28;20688;-76
2022/01/28 07:54:33;;;;;;;8.27;1.65;;;6.60;79.30;;;;;;5083224;28;20074;-75
2022/01/28 07:57:00;;;;;;;6.13;1.73;;;6.60;79.40;;;;;;5085464;28;20039;-76
2022/01/28 07:59:26;;;;;;;4.97;1.40;;;6.60;79.30;;;;;;5078808;28;20111;-76
2022/01/28 08:01:51;;;;;;;6.35;1.83;;;6.60;79.40;;;;;;5080987;28;20115;-77
2022/01/28 08:04:17;;;;;;;5.50;1.30;;;6.60;79.40;;;;;;5081723;28;20074;-75
2022/01/28 08:06:43;;;;;;;5.53;1.63;;;6.60;79.40;;;;;;5080018;28;20016;-78
2022/01/28 08:09:08;;;;;;;4.32;1.40;;;6.60;79.30;;;;;;5081581;28;20031;-76
2022/01/28 08:11:34;;;;;;;5.65;1.60;;;6.60;79.30;;;;;;5079822;28;20044;-77
2022/01/28 08:14:02;;;;;;;5.95;1.27;;;6.70;79.40;;;;;;5082015;28;20114;-78
2022/01/28 08:16:27;;;;;;;5.88;1.30;;;6.60;79.30;;;;;;5079523;28;20028;-77
2022/01/28 08:18:53;;;;;;;5.85;1.50;;;6.60;79.30;;;;;;5071193;28;20078;-79
2022/01/28 08:21:18;;;;;;;7.30;1.50;;;6.70;79.40;;;;;;5086476;28;20040;-77
2022/01/28 08:23:44;;;;;;;8.13;1.83;;;6.70;79.30;;;;;;5080256;28;20028;-77
2022/01/28 08:26:11;;;;;;;6.00;1.60;;;6.70;79.30;;;;;;5078761;28;20075;-76
2022/01/28 08:28:38;;;;;;;3.78;1.52;;;6.70;79.30;;;;;;5070016;28;20025;-76
2022/01/28 08:31:04;;;;;;;5.97;1.65;;;6.80;79.40;;;;;;5070519;28;20056;-77
2022/01/28 08:33:30;;;;;;;4.60;1.30;;;6.80;79.40;;;;;;5073722;28;20027;-76
2022/01/28 08:35:55;;;;;;;4.93;1.40;;;6.70;79.30;;;;;;5066612;28;20024;-76
2022/01/28 08:38:26;;;;;;;6.68;1.70;;;6.80;79.40;;;;;;5070802;28;20021;-76
2022/01/28 08:40:53;;;;;;;5.15;1.48;;;6.80;79.30;;;;;;5076151;28;20024;-76
2022/01/28 08:43:19;;;;;;;6.97;1.85;;;6.80;79.30;;;;;;5071704;28;20046;-77
2022/01/28 08:45:45;;;;;;;4.68;1.20;;;6.80;79.20;;;;;;5075052;28;20029;-77
2022/01/28 08:48:10;;;;;;;8.07;1.77;;;6.80;79.20;;;;;;5066330;28;20110;-75
2022/01/28 08:50:36;;;;;;;7.97;2.08;;;6.80;79.30;;;;;;5067640;28;20427;-76
2022/01/28 08:53:02;;;;;;;9.07;1.90;;;6.80;79.20;;;;;;5081072;28;20028;-77
2022/01/28 08:55:27;;;;;;;5.63;1.52;;;6.80;79.10;;;;;;5075615;28;20497;-75
2022/01/28 08:57:53;;;;;;;7.15;1.52;;;6.80;79.80;;;;;;5076532;28;20038;-76
2022/01/28 09:00:22;;;;;;;5.32;1.83;;;6.90;79.20;;;;;;5081340;28;20099;-76
2022/01/28 09:02:48;;;;;;;4.57;1.45;;;6.90;79.80;;;;;;5066103;28;20031;-76
2022/01/28 09:05:14;;;;;;;7.97;1.60;;;7.00;79.20;;;;;;5074438;28;20031;-76
2022/01/28 09:07:40;;;;;;;7.28;1.42;;;7.00;79.10;;;;;;5070882;28;20548;-77
2022/01/28 09:10:12;;;;;;;9.57;1.83;;;7.00;79.10;;;;;;5073613;28;20025;-78
2022/01/28 09:12:46;;;;;;;;;;;7.00;79.00;;;;;;5074129;28;20784;-75
2022/01/28 09:15:12;;;;;;;4.60;1.42;;;7.10;79.00;;;;;;5079499;28;19946;-75
2022/01/28 09:17:37;;;;;;;7.15;1.52;;;7.10;79.10;;;;;;5070795;28;20063;-77
2022/01/28 09:20:03;;;;;;;8.02;1.80;;;7.10;79.00;;;;;;5076263;28;20531;-74
2022/01/28 09:22:29;;;;;;;6.32;1.92;;;7.10;78.90;;;;;;5072786;28;20029;-76
2022/01/28 09:24:55;;;;;;;4.32;1.40;;;7.10;78.90;;;;;;5080195;28;20036;-76
2022/01/28 09:27:21;;;;;;;7.38;1.80;;;7.20;78.90;;;;;;5067440;28;20107;-79
2022/01/28 09:29:47;;;;;;;5.50;1.30;;;7.20;78.90;;;;;;5075672;28;20028;-76
2022/01/28 09:32:12;;;;;;;5.32;1.35;;;7.30;78.90;;;;;;5072162;28;20032;-78
2022/01/28 09:34:38;;;;;;;4.25;1.40;;;7.30;78.80;;;;;;5067318;28;20029;-79
2022/01/28 09:37:04;;;;;;;4.60;1.30;;;7.30;78.80;;;;;;5065857;28;20027;-79
2022/01/28 09:39:32;;;;;;;7.68;1.88;;;7.30;78.80;;;;;;5066415;28;20623;-79
2022/01/28 09:42:02;;;;;;;6.80;1.52;;;7.40;78.80;;;;;;5076937;28;20036;-79
2022/01/28 09:44:30;;;;;;;6.50;1.55;;;7.50;78.70;;;;;;5064785;28;20115;-78
2022/01/28 09:46:59;;;;;;;5.97;1.75;;;7.50;78.60;;;;;;5066874;28;20024;-77
2022/01/28 09:49:26;;;;;;;6.85;1.38;;;7.60;78.50;;;;;;5068867;28;20021;-76
2022/01/28 09:51:51;;;;;;;3.45;1.27;;;7.60;78.50;;;;;;5069870;28;20024;-76
2022/01/28 09:54:17;;;;;;;6.88;1.67;;;7.70;78.50;;;;;;5068058;28;20027;-76
2022/01/28 09:56:43;;;;;;;4.80;1.50;;;7.70;78.40;;;;;;5063407;28;20078;-75
2022/01/28 09:59:08;;;;;;;8.65;1.65;;;7.70;78.30;;;;;;5063323;28;20027;-77
2022/01/28 10:01:34;;;;;;;8.07;1.67;;;7.70;78.20;;;;;;5068379;28;20032;-75
2022/01/28 10:04:04;;;;;;;8.13;1.80;;;7.80;78.20;;;;;;5064813;28;20737;-77
2022/01/28 10:06:33;;;;;;;10.50;1.77;;;7.80;78.10;;;;;;5063489;28;20044;-76
2022/01/28 10:09:05;;;;;;;5.53;1.48;;;7.90;78.10;;;;;;5066397;28;20024;-77
2022/01/28 10:11:30;;;;;;;6.20;1.52;;;7.90;77.90;;;;;;5062006;28;20487;-73
2022/01/28 10:14:05;;;;;;;6.97;2.33;;;8.00;77.80;;;;;;5072661;28;20034;-74
2022/01/28 10:16:31;;;;;;;7.47;1.85;;;8.00;77.70;;;;;;5064949;28;20024;-74
2022/01/28 10:19:27;;;;;;;7.88;1.95;;;8.00;77.50;;;;;;5069323;28;20555;-77
2022/01/28 10:21:54;;;;;;;5.32;1.48;;;8.10;77.40;;;;;;5066929;28;20060;-75
2022/01/28 10:24:25;;;;;;;11.27;2.13;;;8.10;77.10;;;;;;5057080;28;20100;-73
2022/01/28 10:27:06;;;;;;;8.10;1.67;;;8.10;76.70;;;;;;5056647;28;20028;-73
2022/01/28 10:29:34;;;;;;;6.68;1.95;;;8.10;76.60;;;;;;5058812;28;20057;-74
2022/01/28 10:32:02;;;;;;;5.93;1.67;;;8.20;76.50;;;;;;5068366;28;20093;-74
2022/01/28 10:34:39;;;;;;;6.68;2.10;;;8.20;76.40;;;;;;5065414;28;20020;-76
2022/01/28 10:37:16;;;;;;;7.25;1.98;;;8.20;76.00;;;;;;5073235;28;20028;-74
2022/01/28 10:39:54;;;;;;;6.72;1.88;;;8.20;76.00;;;;;;5069200;28;20108;-74
2022/01/28 10:42:32;;;;;;;8.35;1.52;;;8.30;75.80;;;;;;5066387;28;20028;-74
2022/01/28 10:45:10;;;;;;;5.68;1.40;;;8.30;75.60;;;;;;5061565;28;20039;-74
2022/01/28 10:47:44;;;;;;;7.53;1.60;;;8.30;75.50;;;;;;5062492;28;20058;-73
2022/01/28 10:50:30;;;;;;;7.63;2.00;;;8.40;75.30;;;;;;5063871;28;20105;-74
2022/01/28 10:53:01;;;;;;;9.75;2.42;;;8.40;75.10;;;;;;5058235;28;20137;-74
2022/01/28 10:55:30;;;;;;;8.47;1.93;;;8.40;74.60;;;;;;5057914;28;20475;-76
2022/01/28 10:57:58;;;;;;;6.18;1.90;;;8.40;74.40;;;;;;5063159;28;20031;-74
2022/01/28 11:00:28;;;;;;;5.45;1.52;;;8.50;74.30;;;;;;5058666;28;20047;-75
2022/01/28 11:02:54;;;;;;;6.93;1.90;;;8.50;74.10;;;;;;5059838;28;20036;-75
2022/01/28 11:05:21;;;;;;;8.38;2.10;;;8.50;73.90;;;;;;5062107;28;20024;-73
2022/01/28 11:07:47;;;;;;;8.93;1.90;;;8.60;73.60;;;;;;5060693;28;20028;-75
2022/01/28 11:10:14;;;;;;;7.00;1.60;;;8.60;73.70;;;;;;5065008;28;20606;-73
2022/01/28 11:12:40;;;;;;;6.45;1.98;;;8.70;73.70;;;;;;5065309;28;20096;-76
2022/01/28 11:15:07;;;;;;;6.53;1.90;;;8.70;73.40;;;;;;5068904;28;20020;-74
2022/01/28 11:17:32;;;;;;;9.25;2.03;;;8.80;73.50;;;;;;5060221;28;20020;-75
2022/01/28 11:19:59;;;;;;;6.05;1.60;;;8.80;73.20;;;;;;5061758;28;20028;-74
2022/01/28 11:22:45;;;;;;;6.65;1.63;;;8.90;73.10;;;;;;5064281;28;20606;-74
2022/01/28 11:25:39;;;;;;;8.32;1.60;;;8.80;72.90;;;;;;5056789;28;20025;-74
2022/01/28 11:28:10;;;;;;;4.85;1.55;;;8.80;72.80;;;;;;5059106;28;20051;-74
2022/01/28 11:30:36;;;;;;;8.00;1.60;;;8.80;72.80;;;;;;5061811;28;20040;-75
2022/01/28 11:33:08;;;;;;;6.28;1.40;;;8.80;72.70;;;;;;5065270;28;20483;-74
2022/01/28 11:35:51;;;;;;;6.35;2.17;;;8.80;72.50;;;;;;5062252;28;20480;-74
2022/01/28 11:38:29;;;;;;;8.02;1.60;;;8.80;72.20;;;;;;5063915;28;20032;-74
2022/01/28 11:40:56;;;;;;;7.13;1.60;;;8.80;72.30;;;;;;5062313;28;20156;-73
2022/01/28 11:43:29;;;;;;;7.35;1.90;;;8.80;72.10;;;;;;5055763;28;20016;-75
2022/01/28 11:46:10;;;;;;;7.07;1.88;;;8.90;72.10;;;;;;5059399;28;20021;-75
2022/01/28 11:49:04;;;;;;;7.55;1.70;;;9.00;71.80;;;;;;5058127;28;20063;-77
2022/01/28 11:51:33;;;;;;;9.40;2.00;;;9.10;71.50;;;;;;5062068;28;20467;-77
2022/01/28 11:54:00;;;;;;;7.60;1.50;;;9.20;71.40;;;;;;5065345;28;20024;-73
2022/01/28 11:56:28;;;;;;;7.57;1.70;;;9.40;71.30;;;;;;5077568;28;20061;-74
2022/01/28 11:58:58;;;;;;;4.30;1.30;;;9.40;70.90;;;;;;5072439;28;20083;-77
2022/01/28 12:01:39;;;;;;;4.47;1.58;;;9.50;70.80;;;;;;5073249;28;20051;-74
2022/01/28 12:04:24;;;;;;;5.82;1.55;;;9.50;70.60;;;;;;5074282;28;20033;-75
2022/01/28 12:06:59;;;;;;;7.57;1.70;;;9.50;70.60;;;;;;5062695;28;21241;-74
2022/01/28 12:09:29;;;;;;;5.53;1.70;;;9.50;70.40;;;;;;5062038;28;20108;-74
2022/01/28 12:11:55;;;;;;;7.32;1.50;;;9.50;70.00;;;;;;5070964;28;20025;-75
2022/01/28 12:14:54;;;;;;;7.18;1.50;;;9.40;70.00;;;;;;5073468;28;20368;-74
2022/01/28 12:17:32;;;;;;;5.38;1.63;;;9.40;70.10;;;;;;5054929;28;20032;-76
2022/01/28 12:20:15;;;;;;;5.28;1.30;;;9.50;70.20;;;;;;5066346;28;20027;-75
2022/01/28 12:23:10;;;;;;;6.07;1.40;;;9.50;70.10;;;;;;5062775;28;20083;-75
2022/01/28 12:25:35;;;;;;;5.78;1.50;;;9.50;69.90;;;;;;5053279;28;20439;-77
2022/01/28 12:28:30;;;;;;;7.97;1.58;;;9.40;69.80;;;;;;5061931;28;20024;-75
2022/01/28 12:31:16;;;;;;;4.00;1.58;;;9.40;69.40;;;;;;5062443;28;20095;-75
2022/01/28 12:34:02;;;;;;;5.63;1.58;;;9.40;69.50;;;;;;5065380;28;20031;-76
2022/01/28 12:36:33;;;;;;;6.22;1.60;;;9.40;69.60;;;;;;5057956;28;20024;-76
2022/01/28 12:39:11;;;;;;;4.23;1.10;;;9.30;69.50;;;;;;5063373;28;20490;-75
2022/01/28 12:41:49;;;;;;;5.13;1.25;;;9.40;70.00;;;;;;5069532;28;20347;-77
2022/01/28 12:44:16;;;;;;;5.70;1.40;;;9.50;70.00;;;;;;5061915;28;20558;-74
2022/01/28 12:46:48;;;;;;;6.53;1.55;;;9.80;69.70;;;;;;5062849;28;20036;-75
2022/01/28 12:49:14;;;;;;;5.90;1.30;;;10.10;69.10;;;;;;5070840;28;20020;-76
2022/01/28 12:51:40;;;;;;;5.75;1.77;;;10.30;68.50;;;;;;5070724;28;20340;-75
2022/01/28 12:54:06;;;;;;;4.57;1.40;;;10.40;67.70;;;;;;5063767;28;20028;-76
2022/01/28 12:56:41;;;;;;;4.40;1.40;;;10.40;67.40;;;;;;5061909;28;20039;-76
2022/01/28 12:59:08;;;;;;;4.80;1.15;;;10.30;67.10;;;;;;5065249;28;20094;-75
2022/01/28 13:01:34;;;;;;;3.22;1.17;;;10.20;67.40;;;;;;5070789;28;20032;-75
2022/01/28 13:04:08;;;;;;;4.35;1.25;;;10.10;67.40;;;;;;5064903;28;20020;-76
2022/01/28 13:09:15;;;;;;;6.68;1.85;;;10.00;67.60;;;;;;5056787;28;20036;-75
2022/01/28 13:11:45;;;;;;;4.30;1.20;;;10.30;67.00;;;;;;5062048;28;20031;-78
2022/01/28 13:14:15;;;;;;;6.18;1.55;;;11.00;65.10;;;;;;5077565;28;20093;-76
2022/01/28 13:16:44;;;;;;;4.53;1.30;;;11.50;63.50;;;;;;5067974;28;20027;-75
2022/01/28 13:19:11;;;;;;;3.95;1.20;;;11.70;62.60;;;;;;5065396;28;20074;-76
2022/01/28 13:21:38;;;;;;;6.38;1.88;;;11.80;62.60;;;;;;5070020;28;20040;-75
2022/01/28 13:24:14;;;;;;;4.57;1.50;;;11.20;63.40;;;;;;5067530;28;20416;-75
2022/01/28 13:27:04;;;;;;;5.07;1.75;;;10.60;64.80;;;;;;5066090;28;20548;-75
2022/01/28 13:29:49;;;;;;;14.25;7.57;;;10.30;66.20;;;;;;5064821;28;20025;-76
2022/01/28 13:32:40;;;;;;;10.52;5.43;;;10.10;67.10;;;;;;5062606;28;20388;-78
2022/01/28 13:35:29;;;;;;;6.97;3.30;;;9.90;67.70;;;;;;5055170;28;20399;-76
2022/01/28 13:38:02;;;;;;;7.03;3.53;;;9.90;68.20;;;;;;5067454;28;20035;-74
2022/01/28 13:40:29;;;;;;;6.70;2.22;;;10.00;68.20;;;;;;5058690;28;20036;-76
2022/01/28 13:42:59;;;;;;;5.65;2.05;;;10.00;68.30;;;;;;5061790;28;20055;-75
2022/01/28 13:45:41;;;;;;;4.88;1.73;;;10.00;68.30;;;;;;5068835;28;20547;-74
2022/01/28 13:48:18;;;;;;;;;;;10.10;68.30;;;;;;5059379;28;20032;-75
2022/01/28 13:50:50;;;;;;;6.28;2.83;;;10.10;68.40;;;;;;5069106;28;19954;-77
2022/01/28 13:55:49;;;;;;;10.77;6.88;;;10.30;68.30;;;;;;5068256;28;20036;-75
2022/01/28 13:58:15;;;;;;;7.63;5.05;;;10.40;68.30;;;;;;5063744;28;20071;-74
2022/01/28 14:00:45;;;;;;;9.27;4.85;;;10.40;68.00;;;;;;5062008;28;20032;-76
2022/01/28 14:03:19;;;;;;;5.93;2.47;;;10.40;67.20;;;;;;5061978;28;20039;-76
2022/01/28 14:06:01;;;;;;;8.82;6.90;;;10.40;67.40;;;;;;5059332;28;20025;-77
2022/01/28 14:08:45;;;;;;;6.68;3.08;;;10.30;66.80;;;;;;5054384;28;20451;-75
2022/01/28 14:11:30;;;;;;;5.03;2.40;;;10.30;66.60;;;;;;5065926;28;20450;-74
2022/01/28 14:14:19;;;;;;;5.28;2.22;;;10.20;66.80;;;;;;5073275;28;20025;-75
2022/01/28 14:16:49;;;;;;;5.35;1.95;;;10.20;67.00;;;;;;5064129;28;20028;-74
2022/01/28 14:19:16;;;;;;;6.07;2.20;;;10.20;67.00;;;;;;5061069;28;20474;-75
2022/01/28 14:21:42;;;;;;;5.90;1.92;;;10.10;67.20;;;;;;5075683;28;20039;-74
2022/01/28 14:24:12;;;;;;;5.00;1.83;;;10.10;67.20;;;;;;5072612;28;20036;-75
2022/01/28 14:26:43;;;;;;;6.72;2.25;;;10.10;67.30;;;;;;5069953;28;20043;-75
2022/01/28 14:29:23;;;;;;;6.77;1.87;;;10.10;67.20;;;;;;5063237;28;20013;-73
2022/01/28 14:31:53;;;;;;;4.88;1.83;;;10.00;67.40;;;;;;5073805;28;20282;-74
2022/01/28 14:34:21;;;;;;;3.25;1.63;;;10.00;67.50;;;;;;5071197;28;20031;-75